Saturday, August 18, 2018, 1:53 PM EDT
Back to Local

KORF, Norfolk International Airport

Location: Norfolk, VA, United States Lat: 36.9
Local Time: 1:53 PM EDT (17:53 GMT) Lon: -76.2
Time Zone: US/Eastern Elev: 26 ft

Show me the last for .
Show Decoded

2018-08-18 12:51 METAR KORF 181651Z 23012G19KT 10SM CLR 32/23 A2991 RMK AO2 SLP129 T03220228 =
2018-08-18 11:51 METAR KORF 181551Z 25011KT 10SM FEW030 31/23 A2994 RMK AO2 SLP137 T03110233 =
2018-08-18 10:51 METAR KORF 181451Z 25012KT 10SM CLR 30/23 A2996 RMK AO2 SLP144 T03000228 58003 =
2018-08-18 09:51 METAR KORF 181351Z 22015KT 10SM CLR 29/23 A2996 RMK AO2 SLP145 T02890233 =
2018-08-18 08:51 METAR KORF 181251Z 23010KT 10SM CLR 28/23 A2997 RMK AO2 SLP146 T02780233 =
2018-08-18 07:51 METAR KORF 181151Z AUTO 23012KT 10SM CLR 27/23 A2996 RMK AO2 SLP146 T02670233
                 10278 20261 58006 =
2018-08-18 06:51 METAR KORF 181051Z 22012KT 10SM CLR 27/23 A2998 RMK AO2 SLP150 T02670233 =
2018-08-18 05:51 METAR KORF 180951Z 22013KT 10SM CLR 26/23 A2998 RMK AO2 SLP150 T02610233 =
2018-08-18 04:51 METAR KORF 180851Z 22010KT 10SM CLR 27/24 A2998 RMK AO2 SLP152 T02670239 56008 =
2018-08-18 03:51 METAR KORF 180751Z 23010KT 10SM CLR 27/24 A2998 RMK AO2 SLP153 T02720239 =
2018-08-18 02:51 METAR KORF 180651Z 23011G18KT 10SM CLR 27/24 A2999 RMK AO2 LTG DSNT SE-SW SLP154
                 T02720244 =
2018-08-18 02:22 METAR KORF 180622Z 22013KT 10SM CLR 27/24 A3000 RMK AO2 LTG DSNT ALQDS T02720244
                 =
2018-08-18 01:51 METAR KORF 180551Z 22013KT 10SM VCTS CLR 27/24 A3000 RMK AO2 LTG DSNT S AND W
                 SLP160 T02720244 10300 20272 58002 =
2018-08-18 00:51 METAR KORF 180451Z 21014KT 10SM CLR 28/25 A3001 RMK AO2 SLP163 T02780250
                 403440250 =
2018-08-17 23:51 METAR KORF 180351Z 21015G21KT 10SM CLR 28/24 A3001 RMK AO2 SLP162 T02830244 =
2018-08-17 22:51 METAR KORF 180251Z 21010KT 10SM CLR 28/24 A3001 RMK AO2 LTG DSNT N SLP162
                 T02830244 50001 =
2018-08-17 21:51 METAR KORF 180151Z 21009KT 10SM CLR 30/24 A3002 RMK AO2 LTG DSNT N AND NE SLP164
                 T03000239 =
2018-08-17 20:51 METAR KORF 180051Z 21008KT 10SM CLR 30/23 A3000 RMK AO2 LTG DSNT N AND NW SLP159
                 T03000233 =
2018-08-17 19:51 METAR KORF 172351Z 21010KT 10SM CLR 31/23 A3001 RMK AO2 LTG DSNT NW SLP161
                 T03110233 10344 20311 55003 =
2018-08-17 18:51 METAR KORF 172251Z 22012KT 10SM FEW044 32/23 A3000 RMK AO2 SLP159 T03220228 =
2018-08-17 17:51 METAR KORF 172151Z 23013KT 10SM SCT046 33/23 A3001 RMK AO2 SLP161 T03330228 =
2018-08-17 16:51 METAR KORF 172051Z 22012KT 10SM SCT049 34/23 A3002 RMK AO2 SLP164 T03390228
                 56015 =
2018-08-17 15:51 METAR KORF 171951Z 20010KT 10SM SCT050 SCT060 33/22 A3003 RMK AO2 LTG DSNT N
                 SLP167 T03330222 =
2018-08-17 14:51 METAR KORF 171851Z 22010KT 10SM BKN049 BKN060 34/22 A3005 RMK AO2 SLP174
                 T03440222 =

Support USWX by starting your Amazon purchase here.